createdAt,value
2022-11-22T00:02:09.130Z,6.63
2022-11-22T00:04:36.490Z,7.97
2022-11-22T00:07:03.724Z,9.23
2022-11-22T00:09:31.083Z,3.43
2022-11-22T00:11:58.733Z,9.17
2022-11-22T00:14:25.957Z,6.23
2022-11-22T00:16:53.213Z,9.30
2022-11-22T00:19:21.820Z,5.73
2022-11-22T00:21:48.992Z,14.47
2022-11-22T00:24:18.253Z,9.10
2022-11-22T00:26:46.815Z,8.13
2022-11-22T00:29:14.096Z,3.97
2022-11-22T00:31:41.388Z,10.37
2022-11-22T00:34:08.718Z,10.53
2022-11-22T00:36:37.422Z,9.50
2022-11-22T00:39:04.748Z,9.53
2022-11-22T00:41:32.023Z,7.90
2022-11-22T00:43:59.264Z,5.70
2022-11-22T00:46:26.657Z,4.40
2022-11-22T00:48:53.873Z,10.23
2022-11-22T00:51:21.443Z,11.53
2022-11-22T00:54:10.960Z,7.37
2022-11-22T00:56:58.008Z,8.93
2022-11-22T00:59:25.257Z,9.70
2022-11-22T01:01:52.504Z,8.43
2022-11-22T01:04:19.781Z,7.00
2022-11-22T01:06:47.228Z,6.03
2022-11-22T01:09:17.787Z,4.83
2022-11-22T01:11:45.054Z,4.90
2022-11-22T01:14:15.616Z,9.23
2022-11-22T01:16:42.863Z,8.10
2022-11-22T01:19:10.427Z,8.27
2022-11-22T01:21:37.688Z,9.23
2022-11-22T01:24:08.355Z,9.50
2022-11-22T01:26:37.571Z,8.40
2022-11-22T01:29:04.784Z,7.10
2022-11-22T01:31:33.756Z,5.97
2022-11-22T01:34:00.925Z,7.60
2022-11-22T01:36:28.542Z,9.87
2022-11-22T01:38:55.972Z,5.50
2022-11-22T01:41:23.556Z,9.13
2022-11-22T01:43:51.108Z,11.07
2022-11-22T01:46:30.642Z,12.50
2022-11-22T01:49:00.811Z,14.50
2022-11-22T01:51:30.353Z,12.10
2022-11-22T01:53:59.593Z,8.57
2022-11-22T01:56:45.633Z,12.20
2022-11-22T01:59:15.223Z,12.20
2022-11-22T02:01:42.530Z,12.97
2022-11-22T02:04:14.492Z,9.20
2022-11-22T02:06:47.963Z,9.27
2022-11-22T02:09:16.282Z,13.87
2022-11-22T02:14:26.774Z,11.73
2022-11-22T02:16:54.254Z,8.07
2022-11-22T02:19:27.565Z,10.13
2022-11-22T02:22:07.346Z,9.83
2022-11-22T02:24:54.814Z,9.43
2022-11-22T02:27:29.867Z,10.50
2022-11-22T02:29:57.441Z,16.17
2022-11-22T02:32:24.652Z,10.70
2022-11-22T02:34:52.199Z,8.93
2022-11-22T02:37:23.524Z,13.37
2022-11-22T02:39:52.404Z,12.53
2022-11-22T02:42:19.653Z,10.47
2022-11-22T02:44:48.531Z,10.57
2022-11-22T02:47:15.872Z,11.27
2022-11-22T02:49:43.303Z,7.80
2022-11-22T02:52:17.160Z,12.70
2022-11-22T02:54:56.599Z,9.90
2022-11-22T02:57:36.197Z,7.33
2022-11-22T03:00:05.243Z,8.23
2022-11-22T03:02:32.596Z,11.77
2022-11-22T03:04:59.884Z,9.23
2022-11-22T03:07:27.200Z,12.03
2022-11-22T03:09:54.459Z,10.40
2022-11-22T03:12:21.716Z,9.47
2022-11-22T03:14:48.970Z,9.73
2022-11-22T03:17:17.889Z,7.83
2022-11-22T03:19:45.181Z,7.13
2022-11-22T03:22:34.069Z,4.57
2022-11-22T03:25:02.745Z,10.27
2022-11-22T03:27:30.616Z,8.00
2022-11-22T03:29:57.923Z,9.97
2022-11-22T03:32:26.482Z,12.07
2022-11-22T03:34:53.718Z,12.97
2022-11-22T03:37:20.954Z,5.27
2022-11-22T03:39:48.237Z,7.33
2022-11-22T03:42:21.031Z,9.83
2022-11-22T03:44:49.387Z,4.53
2022-11-22T03:47:16.676Z,8.07
2022-11-22T03:49:45.425Z,6.90
2022-11-22T03:52:31.430Z,5.60
2022-11-22T03:55:26.564Z,6.03
2022-11-22T03:57:53.859Z,7.33
2022-11-22T04:00:21.194Z,9.13
2022-11-22T04:02:51.346Z,6.00
2022-11-22T04:05:20.011Z,8.17
2022-11-22T04:07:47.293Z,8.80
2022-11-22T04:13:15.034Z,7.33
2022-11-22T04:15:42.582Z,8.17
2022-11-22T04:18:10.390Z,7.80
2022-11-22T04:20:48.063Z,9.43
2022-11-22T04:23:29.328Z,8.37
2022-11-22T04:26:11.916Z,6.30
2022-11-22T04:29:09.202Z,6.43
2022-11-22T04:31:26.517Z,7.00
2022-11-22T04:33:53.753Z,8.37
2022-11-22T04:36:22.330Z,4.03
2022-11-22T04:38:49.651Z,8.13
2022-11-22T04:41:16.848Z,7.00
2022-11-22T04:43:44.138Z,7.03
2022-11-22T04:46:12.151Z,10.77
2022-11-22T04:48:39.701Z,6.47
2022-11-22T04:51:07.535Z,7.47
2022-11-22T04:53:36.103Z,8.70
2022-11-22T04:56:15.790Z,11.53
2022-11-22T05:01:49.554Z,7.10
2022-11-22T05:04:17.019Z,7.37
2022-11-22T05:06:44.202Z,8.73
2022-11-22T05:09:12.828Z,8.07
2022-11-22T05:11:40.027Z,11.20
2022-11-22T05:14:07.313Z,7.60
2022-11-22T05:16:40.480Z,12.70
2022-11-22T05:19:07.792Z,6.80
2022-11-22T05:21:35.005Z,6.40
2022-11-22T05:24:02.211Z,5.20
2022-11-22T05:30:12.867Z,8.10
2022-11-22T05:32:40.048Z,5.93
2022-11-22T05:35:07.586Z,7.47
2022-11-22T05:37:34.773Z,6.17
2022-11-22T05:40:02.026Z,7.20
2022-11-22T05:42:29.380Z,10.07
2022-11-22T05:47:40.513Z,8.57
2022-11-22T05:50:08.112Z,4.70
2022-11-22T05:52:35.638Z,10.57
2022-11-22T05:55:25.327Z,7.90
2022-11-22T05:58:16.080Z,9.37
2022-11-22T06:00:48.872Z,5.23
2022-11-22T06:03:17.638Z,8.20
2022-11-22T06:05:51.075Z,7.80
2022-11-22T06:08:18.452Z,6.33
2022-11-22T06:10:45.675Z,5.93
2022-11-22T06:13:13.007Z,6.53
2022-11-22T06:15:46.363Z,7.90
2022-11-22T06:18:14.006Z,11.53
2022-11-22T06:20:42.611Z,4.77
2022-11-22T06:23:09.992Z,7.07
2022-11-22T06:25:59.606Z,6.67
2022-11-22T06:28:29.364Z,9.03
2022-11-22T06:31:01.025Z,7.97
2022-11-22T06:33:28.339Z,5.50
2022-11-22T06:36:01.903Z,8.00
2022-11-22T06:38:29.209Z,4.40
2022-11-22T06:40:59.573Z,4.30
2022-11-22T06:43:27.657Z,8.33
2022-11-22T06:45:55.945Z,6.73
2022-11-22T06:48:23.136Z,6.47
2022-11-22T06:50:50.541Z,9.77
2022-11-22T06:53:45.256Z,5.63
2022-11-22T06:56:07.491Z,6.53
2022-11-22T06:58:35.146Z,6.27
2022-11-22T07:01:02.938Z,7.13
2022-11-22T07:03:30.403Z,8.10
2022-11-22T07:05:57.971Z,6.87
2022-11-22T07:08:26.630Z,7.07
2022-11-22T07:10:54.214Z,6.30
2022-11-22T07:13:21.495Z,7.77
2022-11-22T07:15:54.717Z,5.33
2022-11-22T07:18:21.955Z,7.03
2022-11-22T07:20:49.153Z,8.83
2022-11-22T07:23:16.569Z,8.93
2022-11-22T07:25:46.154Z,5.43
2022-11-22T07:31:05.173Z,6.20
2022-11-22T07:33:32.800Z,11.83
2022-11-22T07:36:04.805Z,7.53
2022-11-22T07:38:32.269Z,5.43
2022-11-22T07:41:00.956Z,6.83
2022-11-22T07:43:34.708Z,4.40
2022-11-22T07:49:55.476Z,8.33
2022-11-22T07:52:22.756Z,5.97
2022-11-22T07:54:50.022Z,6.30
2022-11-22T07:57:18.699Z,7.03
2022-11-22T07:59:45.918Z,9.17
2022-11-22T08:02:13.453Z,3.87
2022-11-22T08:04:40.759Z,4.60
2022-11-22T08:07:08.356Z,9.33
2022-11-22T08:09:35.753Z,6.70
2022-11-22T08:12:03.222Z,7.53
2022-11-22T08:14:51.478Z,5.67
2022-11-22T08:17:20.387Z,6.53
2022-11-22T08:19:47.740Z,8.30
2022-11-22T08:22:14.963Z,8.63
2022-11-22T08:24:42.296Z,6.83
2022-11-22T08:27:09.500Z,4.90
2022-11-22T08:29:36.728Z,10.50
2022-11-22T08:32:04.095Z,7.33
2022-11-22T08:34:34.021Z,11.03
2022-11-22T08:37:01.986Z,9.30
2022-11-22T08:39:29.489Z,4.07
2022-11-22T08:41:57.322Z,7.80
2022-11-22T08:44:47.415Z,6.33
2022-11-22T08:47:14.657Z,9.17
2022-11-22T08:49:43.270Z,8.93
2022-11-22T08:52:10.484Z,7.53
2022-11-22T08:54:38.267Z,3.80
2022-11-22T08:57:05.652Z,3.80
2022-11-22T08:59:33.856Z,6.77
2022-11-22T09:04:52.485Z,3.63
2022-11-22T09:10:07.511Z,6.50
2022-11-22T09:12:53.220Z,6.50
2022-11-22T09:15:43.419Z,6.77
2022-11-22T09:18:16.259Z,6.87
2022-11-22T09:20:44.968Z,8.47
2022-11-22T09:23:12.322Z,7.23
2022-11-22T09:25:39.568Z,7.47
2022-11-22T09:28:06.805Z,5.13
2022-11-22T09:30:34.068Z,7.87
2022-11-22T09:33:01.390Z,7.87
2022-11-22T09:35:28.945Z,8.67
2022-11-22T09:37:57.698Z,6.87
2022-11-22T09:40:25.026Z,8.70
2022-11-22T09:43:03.862Z,6.93
2022-11-22T09:45:39.290Z,5.67
2022-11-22T09:48:25.515Z,9.13
2022-11-22T09:51:06.608Z,9.47
2022-11-22T09:53:37.728Z,5.20
2022-11-22T09:56:08.981Z,8.03
2022-11-22T09:58:38.598Z,6.03
2022-11-22T10:01:09.560Z,4.23
2022-11-22T10:03:41.423Z,3.97
2022-11-22T10:09:22.524Z,3.83
2022-11-22T10:11:53.074Z,6.83
2022-11-22T10:14:26.422Z,5.37
2022-11-22T10:16:56.205Z,2.90
2022-11-22T10:19:25.833Z,6.43
2022-11-22T10:22:12.365Z,3.97
2022-11-22T10:25:01.695Z,4.10
2022-11-22T10:27:39.753Z,3.23
2022-11-22T10:30:13.663Z,3.03
2022-11-22T10:32:42.943Z,6.13
2022-11-22T10:35:23.281Z,5.93
2022-11-22T10:37:53.208Z,4.73
2022-11-22T10:40:23.916Z,4.27
2022-11-22T10:43:21.697Z,4.03
2022-11-22T10:45:55.044Z,7.43
2022-11-22T10:48:25.001Z,2.83
2022-11-22T10:50:57.253Z,5.80
2022-11-22T10:53:28.644Z,3.17
2022-11-22T10:55:58.428Z,4.60
2022-11-22T10:58:39.654Z,4.53
2022-11-22T11:01:15.803Z,3.13
2022-11-22T11:03:44.618Z,4.87
2022-11-22T11:06:24.376Z,7.20
2022-11-22T11:11:46.155Z,5.83
2022-11-22T11:14:17.785Z,4.87
2022-11-22T11:16:47.279Z,5.90
2022-11-22T11:19:18.710Z,5.20
2022-11-22T11:21:46.189Z,5.70
2022-11-22T11:24:14.658Z,6.87
2022-11-22T11:27:03.962Z,4.07
2022-11-22T11:47:03.284Z,8.50
2022-11-22T11:49:32.150Z,7.07
2022-11-22T11:52:00.834Z,4.47
2022-11-22T11:54:34.507Z,4.63
2022-11-22T11:57:43.875Z,4.37
2022-11-22T12:00:20.919Z,4.83
2022-11-22T12:02:49.682Z,4.37
2022-11-22T12:05:26.435Z,2.97
2022-11-22T12:07:53.868Z,3.43
2022-11-22T12:10:27.947Z,4.47
2022-11-22T12:13:04.006Z,3.07
2022-11-22T12:15:36.192Z,2.90
2022-11-22T12:18:12.293Z,5.67
2022-11-22T12:20:42.888Z,4.97
2022-11-22T12:23:15.096Z,2.43
2022-11-22T12:25:43.011Z,2.97
2022-11-22T12:28:13.429Z,6.07
2022-11-22T12:34:13.450Z,6.40
2022-11-22T12:36:43.621Z,6.53
2022-11-22T12:39:13.210Z,3.87
2022-11-22T12:41:41.184Z,3.40
2022-11-22T12:44:12.764Z,4.03
2022-11-22T12:46:41.486Z,2.67
2022-11-22T12:48:23.306Z,5.60
2022-11-22T12:51:55.036Z,3.63
2022-11-22T12:54:23.359Z,7.60
2022-11-22T12:56:52.472Z,2.33
2022-11-22T12:59:25.328Z,2.80
2022-11-22T13:01:57.268Z,6.27
2022-11-22T13:04:39.805Z,7.37
2022-11-22T13:07:37.506Z,4.73
2022-11-22T13:10:20.003Z,5.40
2022-11-22T13:12:48.175Z,3.97
2022-11-22T13:15:20.089Z,4.53
2022-11-22T13:17:47.714Z,4.40
2022-11-22T13:20:18.905Z,2.80
2022-11-22T13:22:51.926Z,2.50
2022-11-22T13:25:28.853Z,2.83
2022-11-22T13:27:57.284Z,6.17
2022-11-22T13:30:25.545Z,5.43
2022-11-22T13:32:53.976Z,2.80
2022-11-22T13:35:28.564Z,4.27
2022-11-22T13:37:58.632Z,5.17
2022-11-22T13:40:27.528Z,7.40
2022-11-22T13:43:22.804Z,4.43
2022-11-22T13:45:55.749Z,8.57
2022-11-22T13:48:53.626Z,5.53
2022-11-22T13:51:42.255Z,3.00
2022-11-22T13:54:24.479Z,5.20
2022-11-22T13:57:00.012Z,5.53
2022-11-22T13:59:27.432Z,6.27
2022-11-22T14:01:56.144Z,3.90
2022-11-22T14:07:06.358Z,3.53
2022-11-22T14:09:41.199Z,2.73
2022-11-22T14:12:33.151Z,2.80
2022-11-22T14:15:15.387Z,3.10
2022-11-22T14:17:47.250Z,2.53
2022-11-22T14:20:38.299Z,4.70
2022-11-22T14:26:19.211Z,4.63
2022-11-22T14:29:03.256Z,3.57
2022-11-22T14:31:31.863Z,2.90
2022-11-22T14:34:14.085Z,2.63
2022-11-22T14:36:43.027Z,2.80
2022-11-22T14:39:33.688Z,2.60
2022-11-22T14:42:01.359Z,2.50
2022-11-22T14:44:32.804Z,3.67
2022-11-22T14:47:03.623Z,4.27
2022-11-22T14:49:35.626Z,3.23
2022-11-22T14:52:06.174Z,2.87
2022-11-22T14:54:46.172Z,3.83
2022-11-22T14:57:16.631Z,2.50
2022-11-22T15:00:02.541Z,2.60
2022-11-22T15:02:47.395Z,2.93
2022-11-22T15:09:20.090Z,2.40
2022-11-22T15:09:20.997Z,2.50
2022-11-22T15:11:29.865Z,3.17
2022-11-22T16:00:59.111Z,2.53
2022-11-22T16:04:00.317Z,3.73
2022-11-22T16:06:29.572Z,6.33
2022-11-22T16:08:59.436Z,4.77
2022-11-22T16:11:29.654Z,3.43
2022-11-22T16:13:57.264Z,3.10
2022-11-22T16:16:27.423Z,5.43
2022-11-22T16:18:54.790Z,3.30
2022-11-22T16:21:27.727Z,3.33
2022-11-22T16:24:10.964Z,2.43
2022-11-22T16:26:38.201Z,3.87
2022-11-22T16:29:41.218Z,3.77
2022-11-22T16:32:11.260Z,2.83
2022-11-22T16:34:38.762Z,4.20
2022-11-22T16:37:20.809Z,7.17
2022-11-22T16:39:49.497Z,5.47
2022-11-22T16:42:16.737Z,3.57
2022-11-22T16:44:44.019Z,2.83
2022-11-22T16:47:14.479Z,3.07
2022-11-22T16:49:41.689Z,3.47
2022-11-22T16:52:11.298Z,3.47
2022-11-22T16:54:38.684Z,3.23
2022-11-22T16:57:09.800Z,2.80
2022-11-22T16:59:37.013Z,3.37
2022-11-22T17:02:04.523Z,2.50
2022-11-22T17:04:33.681Z,2.90
2022-11-22T17:07:03.952Z,3.10
2022-11-22T17:09:31.593Z,5.10
2022-11-22T17:11:59.042Z,4.10
2022-11-22T17:14:27.594Z,3.40
2022-11-22T17:16:54.868Z,2.67
2022-11-22T17:19:51.372Z,3.57
2022-11-22T17:22:09.420Z,4.17
2022-11-22T17:24:36.660Z,4.50
2022-11-22T17:27:03.979Z,3.50
2022-11-22T17:29:49.759Z,7.90
2022-11-22T17:32:18.119Z,4.13
2022-11-22T17:34:45.346Z,5.53
2022-11-22T17:37:13.092Z,5.03
2022-11-22T17:39:40.729Z,4.60
2022-11-22T17:42:07.960Z,2.53
2022-11-22T17:44:36.556Z,4.07
2022-11-22T17:47:03.950Z,2.77
2022-11-22T17:49:31.692Z,3.20
2022-11-22T17:51:59.243Z,3.23
2022-11-22T17:54:26.503Z,2.97
2022-11-22T17:56:53.735Z,3.40
2022-11-22T17:59:21.021Z,3.30
2022-11-22T18:01:49.591Z,3.50
2022-11-22T18:04:16.940Z,5.57
2022-11-22T18:06:44.181Z,10.00
2022-11-22T18:09:11.420Z,4.07
2022-11-22T18:11:38.688Z,4.77
2022-11-22T18:14:05.886Z,6.63
2022-11-22T18:16:33.128Z,7.23
2022-11-22T18:19:01.805Z,4.93
2022-11-22T18:21:30.005Z,5.37
2022-11-22T18:23:57.500Z,6.60
2022-11-22T18:26:39.306Z,5.37
2022-11-22T18:31:54.909Z,4.17
2022-11-22T18:34:23.785Z,8.83
2022-11-22T18:37:06.747Z,5.50
2022-11-22T18:39:35.809Z,9.43
2022-11-22T18:42:03.718Z,3.70
2022-11-22T18:44:31.086Z,3.87
2022-11-22T18:46:58.564Z,6.80
2022-11-22T18:49:27.340Z,7.33
2022-11-22T18:51:54.617Z,4.13
2022-11-22T18:54:21.930Z,3.43
2022-11-22T18:56:49.211Z,9.23
2022-11-22T18:59:16.458Z,9.10
2022-11-22T19:01:43.750Z,5.33
2022-11-22T19:04:12.417Z,7.10
2022-11-22T19:06:40.992Z,3.07
2022-11-22T19:09:08.630Z,7.60
2022-11-22T19:11:35.860Z,14.90
2022-11-22T19:14:03.462Z,6.17
2022-11-22T19:16:30.703Z,5.40
2022-11-22T19:18:58.439Z,10.60
2022-11-22T19:21:27.413Z,8.77
2022-11-22T19:23:56.506Z,14.70
2022-11-22T19:26:24.595Z,10.50
2022-11-22T19:28:52.569Z,15.27
2022-11-22T19:31:20.549Z,10.73
2022-11-22T19:33:47.966Z,4.77
2022-11-22T19:36:15.983Z,9.10
2022-11-22T19:38:43.397Z,8.67
2022-11-22T19:41:12.537Z,11.43
2022-11-22T19:43:40.062Z,6.87
2022-11-22T19:46:07.547Z,9.80
2022-11-22T19:48:35.255Z,7.87
2022-11-22T19:51:05.482Z,9.00
2022-11-22T19:53:32.809Z,14.63
2022-11-22T19:56:02.563Z,12.80
2022-11-22T19:58:31.234Z,6.73
2022-11-22T20:01:03.554Z,12.03
2022-11-22T20:03:30.836Z,10.20
2022-11-22T20:05:59.819Z,9.77
2022-11-22T20:08:27.123Z,11.57
2022-11-22T20:10:54.345Z,11.73
2022-11-22T20:13:21.560Z,10.37
2022-11-22T20:15:50.131Z,10.03
2022-11-22T20:18:17.521Z,14.17
2022-11-22T20:20:44.712Z,13.27
2022-11-22T20:23:11.940Z,10.10
2022-11-22T20:25:39.768Z,10.50
2022-11-22T20:28:06.953Z,12.33
2022-11-22T20:30:34.606Z,11.27
2022-11-22T20:33:03.311Z,14.17
2022-11-22T20:35:30.554Z,10.13
2022-11-22T20:37:57.749Z,9.70
2022-11-22T20:40:25.008Z,8.17
2022-11-22T20:42:52.331Z,14.87
2022-11-22T20:45:19.658Z,9.13
2022-11-22T20:47:46.879Z,13.27
2022-11-22T20:50:16.341Z,10.67
2022-11-22T20:52:43.591Z,7.97
2022-11-22T20:55:10.847Z,8.47
2022-11-22T20:57:38.082Z,9.83
2022-11-22T21:00:05.822Z,13.57
2022-11-22T21:02:33.099Z,11.07
2022-11-22T21:05:00.311Z,10.70
2022-11-22T21:07:29.000Z,11.27
2022-11-22T21:09:56.219Z,14.90
2022-11-22T21:12:23.463Z,9.57
2022-11-22T21:14:53.733Z,9.80
2022-11-22T21:17:41.838Z,12.90
2022-11-22T21:20:08.801Z,13.03
2022-11-22T21:22:37.497Z,11.73
2022-11-22T21:25:04.984Z,7.17
2022-11-22T21:27:32.216Z,10.87
2022-11-22T21:29:59.626Z,12.60
2022-11-22T21:32:27.028Z,11.10
2022-11-22T21:34:57.308Z,10.33
2022-11-22T21:37:24.542Z,13.77
2022-11-22T21:39:53.124Z,16.87
2022-11-22T21:42:20.371Z,10.13
2022-11-22T21:44:47.721Z,19.47
2022-11-22T21:47:14.958Z,12.27
2022-11-22T21:49:42.209Z,14.33
2022-11-22T21:52:09.442Z,10.37
2022-11-22T21:54:36.746Z,12.80
2022-11-22T21:57:05.329Z,14.57
2022-11-22T21:59:33.081Z,13.57
2022-11-22T22:02:00.774Z,10.47
2022-11-22T22:04:28.055Z,14.80
2022-11-22T22:06:55.331Z,12.53
2022-11-22T22:09:22.555Z,13.13
2022-11-22T22:11:49.856Z,12.53
2022-11-22T22:14:18.503Z,16.27
2022-11-22T22:16:45.674Z,12.60
2022-11-22T22:19:12.915Z,10.53
2022-11-22T22:21:40.114Z,14.87
2022-11-22T22:24:09.539Z,14.30
2022-11-22T22:26:36.789Z,14.63
2022-11-22T22:29:03.980Z,14.50
2022-11-22T22:31:33.962Z,16.40
2022-11-22T22:34:01.254Z,15.03
2022-11-22T22:36:28.481Z,13.83
2022-11-22T22:38:55.745Z,15.53
2022-11-22T22:41:23.082Z,11.00
2022-11-22T22:43:50.532Z,12.70
2022-11-22T22:46:18.373Z,17.10
2022-11-22T22:48:47.231Z,13.60
2022-11-22T22:51:15.524Z,15.03
2022-11-22T22:53:43.524Z,12.93
2022-11-22T22:56:11.565Z,13.87
2022-11-22T22:58:39.220Z,18.60
2022-11-22T23:01:07.382Z,15.27
2022-11-22T23:03:34.716Z,13.60
2022-11-22T23:06:06.048Z,16.40
2022-11-22T23:08:33.676Z,12.87
2022-11-22T23:11:04.509Z,11.63
2022-11-22T23:13:31.785Z,16.30
2022-11-22T23:15:59.046Z,15.37
2022-11-22T23:18:26.339Z,10.47
2022-11-22T23:20:53.625Z,11.90
2022-11-22T23:23:22.274Z,12.57
2022-11-22T23:25:49.487Z,14.73
2022-11-22T23:28:16.818Z,11.17
2022-11-22T23:30:44.000Z,12.13
2022-11-22T23:33:11.279Z,14.57
2022-11-22T23:35:38.492Z,15.83
2022-11-22T23:38:05.790Z,11.77
2022-11-22T23:40:34.311Z,10.70
2022-11-22T23:43:01.666Z,9.53
2022-11-22T23:45:28.943Z,11.27
2022-11-22T23:50:47.659Z,11.17
2022-11-22T23:53:14.994Z,9.37
2022-11-22T23:55:43.593Z,11.47
2022-11-22T23:58:10.886Z,14.47
